Anamosa, Iowa
Current Conditions -  °F | °C
As of 4:15 PM on Friday 24 Oct 2014 (Local Time) from KMXO Reporting Station
Overcast Overcast  
Wind Chill: 18°   Ceiling: 3200
Heat Index: 18°   Visibility: 10mi
Dew Point: 14°   Wind: 12mph
Humidity: 77%   Direction: 170°S
Pressure: 29.89"   Gusts: 21mph
Location:  42.11°N, 91.28°W
Report Text: KMXO 242115Z AUTO 17010G18KT 10SM OVC032 18/14 A2989 RMK AO2
Loading
Personal Weather Stations






























Interactive Weather Map
Tropical Storm Tracking
New forecast layout! Learn more

10-Day Weather Forecast

Advertisements
Track Severe Weather on mobile